createdAt,value
2023-04-23T00:00:23.476Z,10.60
2023-04-23T00:02:52.869Z,10.60
2023-04-23T00:05:19.745Z,10.60
2023-04-23T00:07:46.685Z,10.50
2023-04-23T00:10:13.447Z,10.50
2023-04-23T00:12:40.939Z,10.40
2023-04-23T00:15:08.022Z,10.40
2023-04-23T00:17:34.751Z,10.30
2023-04-23T00:20:01.718Z,10.30
2023-04-23T00:22:28.431Z,10.20
2023-04-23T00:24:55.116Z,10.20
2023-04-23T00:27:21.869Z,10.10
2023-04-23T00:29:48.698Z,10.00
2023-04-23T00:32:15.669Z,9.90
2023-04-23T00:34:42.710Z,9.90
2023-04-23T00:37:09.750Z,9.90
2023-04-23T00:39:38.607Z,9.90
2023-04-23T00:42:11.571Z,10.00
2023-04-23T00:44:39.292Z,10.10
2023-04-23T00:47:07.459Z,10.20
2023-04-23T00:49:35.067Z,10.20
2023-04-23T00:52:02.236Z,10.30
2023-04-23T00:54:29.131Z,10.20
2023-04-23T00:56:58.082Z,10.20
2023-04-23T00:59:25.737Z,10.10
2023-04-23T01:01:52.877Z,10.10
2023-04-23T01:04:20.448Z,10.10
2023-04-23T01:06:48.357Z,10.10
2023-04-23T01:09:16.009Z,10.20
2023-04-23T01:11:43.780Z,10.20
2023-04-23T01:14:11.648Z,10.10
2023-04-23T01:16:39.045Z,10.10
2023-04-23T01:19:06.845Z,10.10
2023-04-23T01:21:34.244Z,10.10
2023-04-23T01:24:05.370Z,10.20
2023-04-23T01:26:32.565Z,10.20
2023-04-23T01:29:00.053Z,10.20
2023-04-23T01:31:27.755Z,10.10
2023-04-23T01:33:55.546Z,10.10
2023-04-23T01:36:23.454Z,10.20
2023-04-23T01:38:50.318Z,10.20
2023-04-23T01:41:17.078Z,10.30
2023-04-23T01:43:44.659Z,10.30
2023-04-23T01:46:11.641Z,10.30
2023-04-23T01:48:38.471Z,10.30
2023-04-23T01:51:05.987Z,10.30
2023-04-23T01:53:32.676Z,10.30
2023-04-23T01:56:00.592Z,10.30
2023-04-23T01:58:27.547Z,10.20
2023-04-23T02:00:54.205Z,10.20
2023-04-23T02:03:21.041Z,10.10
2023-04-23T02:05:48.131Z,10.10
2023-04-23T02:08:14.975Z,10.10
2023-04-23T02:10:41.720Z,10.10
2023-04-23T02:13:08.383Z,10.20
2023-04-23T02:15:35.475Z,10.20
2023-04-23T02:18:02.138Z,10.20
2023-04-23T02:20:28.829Z,10.10
2023-04-23T02:22:56.286Z,10.00
2023-04-23T02:25:22.977Z,10.00
2023-04-23T02:27:49.772Z,10.00
2023-04-23T02:30:16.537Z,10.00
2023-04-23T02:32:44.023Z,10.00
2023-04-23T02:35:10.876Z,9.90
2023-04-23T02:37:37.529Z,9.90
2023-04-23T02:40:06.011Z,9.90
2023-04-23T02:42:32.652Z,9.90
2023-04-23T02:44:59.283Z,9.90
2023-04-23T02:47:25.969Z,9.90
2023-04-23T02:49:52.720Z,9.80
2023-04-23T02:52:19.444Z,9.80
2023-04-23T02:54:46.089Z,9.80
2023-04-23T02:57:14.377Z,9.70
2023-04-23T02:59:41.062Z,9.70
2023-04-23T03:02:08.079Z,9.70
2023-04-23T03:04:35.036Z,9.70
2023-04-23T03:07:01.685Z,9.70
2023-04-23T03:09:28.320Z,9.60
2023-04-23T03:11:54.957Z,9.50
2023-04-23T03:14:21.606Z,9.50
2023-04-23T03:16:48.407Z,9.50
2023-04-23T03:19:15.483Z,9.40
2023-04-23T03:21:42.249Z,9.40
2023-04-23T03:24:11.541Z,9.30
2023-04-23T03:26:38.218Z,9.30
2023-04-23T03:29:06.287Z,9.20
2023-04-23T03:31:33.078Z,9.20
2023-04-23T03:33:59.754Z,9.30
2023-04-23T03:36:26.426Z,9.20
2023-04-23T03:38:53.105Z,9.30
2023-04-23T03:41:19.715Z,9.30
2023-04-23T03:43:46.562Z,9.20
2023-04-23T03:46:13.232Z,9.20
2023-04-23T03:48:39.924Z,9.20
2023-04-23T03:51:06.569Z,9.30
2023-04-23T03:53:33.223Z,9.30
2023-04-23T03:56:00.235Z,9.20
2023-04-23T03:58:27.060Z,9.20
2023-04-23T04:00:54.422Z,9.20
2023-04-23T04:03:21.576Z,9.20
2023-04-23T04:05:48.553Z,9.20
2023-04-23T04:08:15.435Z,9.20
2023-04-23T04:10:42.123Z,9.20
2023-04-23T04:13:08.767Z,9.10
2023-04-23T04:15:35.546Z,9.10
2023-04-23T04:18:02.469Z,9.20
2023-04-23T04:20:29.241Z,9.20
2023-04-23T04:22:56.343Z,9.20
2023-04-23T04:25:28.805Z,9.10
2023-04-23T04:27:55.581Z,9.20
2023-04-23T04:30:22.878Z,9.20
2023-04-23T04:32:50.941Z,9.20
2023-04-23T04:35:18.009Z,9.10
2023-04-23T04:37:44.669Z,9.20
2023-04-23T04:40:11.669Z,9.20
2023-04-23T04:42:39.506Z,9.30
2023-04-23T04:45:06.422Z,9.40
2023-04-23T04:47:33.243Z,9.40
2023-04-23T04:50:00.512Z,9.50
2023-04-23T04:52:27.463Z,9.60
2023-04-23T04:54:54.189Z,9.60
2023-04-23T04:57:22.846Z,9.70
2023-04-23T04:59:49.722Z,9.80
2023-04-23T05:02:16.752Z,9.90
2023-04-23T05:04:43.758Z,9.90
2023-04-23T05:07:11.103Z,10.00
2023-04-23T05:09:37.749Z,10.00
2023-04-23T05:12:07.331Z,9.90
2023-04-23T05:14:34.051Z,9.90
2023-04-23T05:17:00.928Z,9.90
2023-04-23T05:19:27.610Z,9.90
2023-04-23T05:21:54.334Z,10.10
2023-04-23T05:24:21.017Z,10.20
2023-04-23T05:26:47.665Z,10.30
2023-04-23T05:29:17.940Z,10.30
2023-04-23T05:31:44.858Z,10.30
2023-04-23T05:34:11.538Z,10.30
2023-04-23T05:36:38.193Z,10.40
2023-04-23T05:39:04.827Z,10.50
2023-04-23T05:41:31.710Z,10.60
2023-04-23T05:43:58.331Z,10.70
2023-04-23T05:46:25.020Z,10.90
2023-04-23T05:48:51.748Z,11.00
2023-04-23T05:51:18.402Z,11.20
2023-04-23T05:53:45.085Z,11.40
2023-04-23T05:56:11.732Z,11.60
2023-04-23T05:58:38.997Z,11.80
2023-04-23T06:01:05.806Z,11.90
2023-04-23T06:03:32.757Z,12.00
2023-04-23T06:05:59.842Z,12.20
2023-04-23T06:08:26.752Z,12.30
2023-04-23T06:10:53.523Z,12.40
2023-04-23T06:13:20.223Z,12.40
2023-04-23T06:15:46.971Z,12.50
2023-04-23T06:18:13.717Z,12.60
2023-04-23T06:20:40.554Z,12.70
2023-04-23T06:23:07.339Z,12.80
2023-04-23T06:25:34.000Z,13.00
2023-04-23T06:28:00.701Z,13.10
2023-04-23T06:30:27.392Z,13.30
2023-04-23T06:32:54.193Z,13.40
2023-04-23T06:35:20.969Z,13.60
2023-04-23T06:37:47.632Z,13.70
2023-04-23T06:40:14.564Z,13.90
2023-04-23T06:42:41.241Z,13.90
2023-04-23T06:45:08.177Z,14.00
2023-04-23T06:47:34.895Z,14.00
2023-04-23T06:50:02.256Z,14.00
2023-04-23T06:52:29.244Z,13.90
2023-04-23T06:54:55.901Z,14.00
2023-04-23T06:57:22.564Z,14.10
2023-04-23T06:59:49.281Z,14.10
2023-04-23T07:02:16.282Z,14.10
2023-04-23T07:04:43.436Z,14.10
2023-04-23T07:07:10.773Z,14.10
2023-04-23T07:09:37.431Z,14.10
2023-04-23T07:12:04.294Z,14.10
2023-04-23T07:14:31.047Z,14.20
2023-04-23T07:16:58.061Z,14.40
2023-04-23T07:19:24.865Z,14.50
2023-04-23T07:21:53.352Z,14.40
2023-04-23T07:24:20.093Z,14.40
2023-04-23T07:26:46.762Z,14.50
2023-04-23T07:29:14.457Z,14.60
2023-04-23T07:31:44.471Z,14.70
2023-04-23T07:34:11.463Z,14.70
2023-04-23T07:36:38.231Z,14.70
2023-04-23T07:39:05.701Z,14.80
2023-04-23T07:41:32.714Z,14.80
2023-04-23T07:43:59.448Z,14.90
2023-04-23T07:46:26.125Z,15.10
2023-04-23T07:48:53.536Z,15.20
2023-04-23T07:51:22.495Z,15.40
2023-04-23T07:53:51.271Z,15.40
2023-04-23T07:56:18.050Z,15.40
2023-04-23T07:58:44.818Z,15.40
2023-04-23T08:01:11.527Z,15.50
2023-04-23T08:03:38.230Z,15.80
2023-04-23T08:06:05.321Z,15.90
2023-04-23T08:08:32.008Z,16.10
2023-04-23T08:10:58.785Z,16.00
2023-04-23T08:13:25.525Z,16.00
2023-04-23T08:15:52.339Z,16.10
2023-04-23T08:18:19.211Z,16.20
2023-04-23T08:20:46.279Z,16.20
2023-04-23T08:23:12.921Z,16.20
2023-04-23T08:25:39.604Z,16.40
2023-04-23T08:28:06.281Z,16.50
2023-04-23T08:30:33.059Z,16.60
2023-04-23T08:33:01.784Z,16.70
2023-04-23T08:35:28.818Z,16.70
2023-04-23T08:37:55.700Z,17.00
2023-04-23T08:40:22.378Z,17.10
2023-04-23T08:42:50.975Z,17.00
2023-04-23T08:45:17.814Z,17.10
2023-04-23T08:47:44.766Z,17.20
2023-04-23T08:50:12.844Z,17.20
2023-04-23T08:52:45.875Z,17.30
2023-04-23T08:55:15.009Z,17.30
2023-04-23T08:57:42.029Z,17.10
2023-04-23T09:00:11.006Z,17.10
2023-04-23T09:02:40.244Z,17.10
2023-04-23T09:05:07.397Z,17.20
2023-04-23T09:07:34.956Z,17.00
2023-04-23T09:10:06.458Z,17.00
2023-04-23T09:12:35.522Z,17.00
2023-04-23T09:15:02.967Z,17.10
2023-04-23T09:17:30.548Z,17.10
2023-04-23T09:19:57.796Z,17.10
2023-04-23T09:22:45.991Z,17.20
2023-04-23T09:25:14.793Z,17.30
2023-04-23T09:27:41.780Z,17.40
2023-04-23T09:30:10.664Z,17.30
2023-04-23T09:32:38.690Z,17.20
2023-04-23T09:35:06.287Z,17.30
2023-04-23T09:37:33.842Z,17.10
2023-04-23T09:40:01.658Z,17.30
2023-04-23T09:42:28.646Z,17.20
2023-04-23T09:45:01.023Z,17.30
2023-04-23T09:47:27.655Z,17.30
2023-04-23T09:49:54.336Z,17.50
2023-04-23T09:52:22.641Z,17.70
2023-04-23T09:54:49.346Z,17.60
2023-04-23T09:57:16.036Z,17.80
2023-04-23T09:59:48.892Z,17.70
2023-04-23T10:02:19.020Z,17.80
2023-04-23T10:04:50.198Z,17.80
2023-04-23T10:07:20.212Z,17.80
2023-04-23T10:09:47.836Z,17.60
2023-04-23T10:14:46.050Z,18.10
2023-04-23T10:17:12.850Z,18.20
2023-04-23T10:19:43.431Z,18.40
2023-04-23T10:22:19.649Z,18.30
2023-04-23T10:24:51.530Z,18.20
2023-04-23T10:29:49.530Z,18.40
2023-04-23T10:32:17.464Z,18.20
2023-04-23T10:34:44.811Z,18.20
2023-04-23T10:37:12.059Z,18.20
2023-04-23T10:39:38.973Z,18.20
2023-04-23T10:42:05.848Z,18.30
2023-04-23T10:47:12.108Z,18.10
2023-04-23T10:49:39.319Z,18.20
2023-04-23T10:52:20.738Z,18.50
2023-04-23T10:54:49.400Z,18.90
2023-04-23T10:57:16.080Z,19.00
2023-04-23T10:59:52.614Z,18.90
2023-04-23T11:02:19.502Z,18.80
2023-04-23T11:04:49.020Z,18.90
2023-04-23T11:07:18.696Z,19.30
2023-04-23T11:09:49.031Z,19.70
2023-04-23T11:12:24.934Z,19.70
2023-04-23T11:14:52.331Z,19.70
2023-04-23T11:17:22.500Z,19.50
2023-04-23T11:20:06.978Z,19.50
2023-04-23T11:22:40.689Z,19.60
2023-04-23T11:25:14.486Z,19.80
2023-04-23T11:27:42.703Z,20.00
2023-04-23T11:30:16.560Z,19.90
2023-04-23T11:32:49.112Z,19.80
2023-04-23T11:35:20.175Z,19.90
2023-04-23T11:37:48.268Z,19.90
2023-04-23T11:40:19.010Z,20.00
2023-04-23T11:42:49.766Z,19.90
2023-04-23T11:45:20.540Z,19.70
2023-04-23T11:47:49.151Z,19.70
2023-04-23T11:50:19.662Z,19.60
2023-04-23T11:52:46.335Z,19.60
2023-04-23T11:55:13.441Z,19.70
2023-04-23T11:57:44.183Z,19.80
2023-04-23T12:00:18.816Z,19.90
2023-04-23T12:02:52.574Z,20.20
2023-04-23T12:05:24.302Z,20.00
2023-04-23T12:07:54.475Z,20.00
2023-04-23T12:10:21.659Z,19.70
2023-04-23T12:12:52.404Z,19.60
2023-04-23T12:15:19.342Z,19.80
2023-04-23T12:18:08.124Z,19.60
2023-04-23T12:20:35.911Z,19.60
2023-04-23T12:23:09.011Z,19.50
2023-04-23T12:25:36.428Z,19.50
2023-04-23T12:28:04.933Z,19.30
2023-04-23T12:30:32.772Z,19.20
2023-04-23T12:33:04.259Z,19.20
2023-04-23T12:35:49.904Z,19.20
2023-04-23T12:38:23.694Z,19.40
2023-04-23T12:40:51.298Z,19.40
2023-04-23T12:43:17.933Z,19.60
2023-04-23T12:45:45.827Z,19.70
2023-04-23T12:48:12.723Z,19.70
2023-04-23T12:50:39.679Z,19.90
2023-04-23T12:53:06.848Z,19.60
2023-04-23T12:55:33.634Z,19.80
2023-04-23T12:58:00.370Z,19.70
2023-04-23T13:00:27.194Z,19.80
2023-04-23T13:02:54.995Z,19.90
2023-04-23T13:05:21.859Z,19.90
2023-04-23T13:07:48.477Z,20.00
2023-04-23T13:10:15.117Z,20.10
2023-04-23T13:12:42.061Z,19.90
2023-04-23T13:15:09.193Z,19.90
2023-04-23T13:17:36.751Z,19.90
2023-04-23T13:20:04.908Z,19.70
2023-04-23T13:22:31.884Z,19.80
2023-04-23T13:24:59.358Z,20.00
2023-04-23T13:27:27.443Z,20.30
2023-04-23T13:29:54.322Z,20.50
2023-04-23T13:32:22.646Z,20.60
2023-04-23T13:34:49.581Z,20.40
2023-04-23T13:37:16.241Z,20.30
2023-04-23T13:39:43.367Z,20.20
2023-04-23T13:42:10.503Z,20.30
2023-04-23T13:44:37.238Z,20.00
2023-04-23T13:47:04.038Z,19.90
2023-04-23T13:49:30.708Z,19.60
2023-04-23T13:52:04.370Z,19.50
2023-04-23T13:54:31.510Z,19.60
2023-04-23T13:56:58.654Z,19.70
2023-04-23T13:59:25.790Z,19.70
2023-04-23T14:01:52.436Z,19.80
2023-04-23T14:04:24.295Z,19.90
2023-04-23T14:06:51.390Z,20.00
2023-04-23T14:09:18.991Z,19.90
2023-04-23T14:11:45.657Z,19.90
2023-04-23T14:14:12.302Z,20.00
2023-04-23T14:16:39.048Z,20.10
2023-04-23T14:19:06.175Z,20.10
2023-04-23T14:21:33.713Z,20.20
2023-04-23T14:24:16.735Z,20.10
2023-04-23T14:26:49.182Z,20.20
2023-04-23T14:29:35.981Z,20.20
2023-04-23T14:32:02.852Z,20.30
2023-04-23T14:34:29.612Z,20.20
2023-04-23T14:36:56.325Z,20.20
2023-04-23T14:39:23.373Z,20.20
2023-04-23T14:41:50.140Z,20.30
2023-04-23T14:44:16.850Z,20.20
2023-04-23T14:46:43.596Z,20.20
2023-04-23T14:49:10.944Z,20.10
2023-04-23T14:51:37.711Z,20.20
2023-04-23T14:54:05.050Z,20.30
2023-04-23T14:56:31.925Z,20.40
2023-04-23T14:58:58.560Z,20.40
2023-04-23T15:01:25.400Z,20.40
2023-04-23T15:03:52.732Z,20.40
2023-04-23T15:06:19.578Z,20.40
2023-04-23T15:08:46.265Z,20.40
2023-04-23T15:11:13.550Z,20.40
2023-04-23T15:13:44.761Z,20.40
2023-04-23T15:16:40.443Z,20.60
2023-04-23T15:19:13.195Z,20.70
2023-04-23T15:21:42.455Z,20.50
2023-04-23T15:24:09.335Z,20.50
2023-04-23T15:26:36.549Z,20.50
2023-04-23T15:29:04.018Z,20.40
2023-04-23T15:31:30.727Z,20.40
2023-04-23T15:33:57.455Z,20.40
2023-04-23T15:36:24.122Z,20.50
2023-04-23T15:38:50.824Z,20.40
2023-04-23T15:41:17.518Z,20.40
2023-04-23T15:43:44.438Z,20.40
2023-04-23T15:46:11.244Z,20.40
2023-04-23T15:48:37.980Z,20.40
2023-04-23T15:51:04.759Z,20.30
2023-04-23T15:53:31.438Z,20.20
2023-04-23T15:55:59.232Z,19.90
2023-04-23T15:58:25.873Z,19.60
2023-04-23T16:00:52.674Z,19.50
2023-04-23T16:03:19.629Z,19.50
2023-04-23T16:05:48.221Z,19.40
2023-04-23T16:08:16.335Z,19.50
2023-04-23T16:10:43.416Z,19.70
2023-04-23T16:13:10.235Z,19.80
2023-04-23T16:15:36.941Z,20.10
2023-04-23T16:18:03.705Z,20.70
2023-04-23T16:20:30.670Z,21.10
2023-04-23T16:22:57.355Z,21.40
2023-04-23T16:25:24.243Z,21.60
2023-04-23T16:27:50.942Z,21.60
2023-04-23T16:30:17.789Z,21.40
2023-04-23T16:32:44.602Z,21.20
2023-04-23T16:35:11.394Z,21.00
2023-04-23T16:37:38.101Z,21.20
2023-04-23T16:40:05.895Z,20.70
2023-04-23T16:42:32.655Z,20.00
2023-04-23T16:44:59.653Z,19.40
2023-04-23T16:47:26.745Z,19.50
2023-04-23T16:49:53.610Z,19.70
2023-04-23T16:52:20.315Z,19.60
2023-04-23T16:54:49.335Z,19.20
2023-04-23T16:57:16.679Z,19.00
2023-04-23T16:59:43.348Z,18.90
2023-04-23T17:02:10.143Z,18.80
2023-04-23T17:04:37.335Z,18.70
2023-04-23T17:07:04.170Z,18.60
2023-04-23T17:09:31.710Z,18.50
2023-04-23T17:11:59.377Z,18.30
2023-04-23T17:14:26.635Z,18.20
2023-04-23T17:16:53.303Z,18.10
2023-04-23T17:19:20.000Z,17.90
2023-04-23T17:21:46.733Z,17.70
2023-04-23T17:24:13.472Z,17.80
2023-04-23T17:26:40.420Z,17.70
2023-04-23T17:29:07.129Z,17.70
2023-04-23T17:31:35.964Z,17.50
2023-04-23T17:34:04.296Z,17.50
2023-04-23T17:36:30.991Z,17.30
2023-04-23T17:38:57.683Z,17.20
2023-04-23T17:41:24.484Z,17.00
2023-04-23T17:43:51.414Z,16.90
2023-04-23T17:46:18.168Z,16.80
2023-04-23T17:48:45.122Z,16.70
2023-04-23T17:51:11.871Z,16.80
2023-04-23T17:53:38.609Z,16.70
2023-04-23T17:56:05.495Z,16.60
2023-04-23T17:58:32.269Z,16.70
2023-04-23T18:00:58.967Z,16.60
2023-04-23T18:03:26.676Z,16.40
2023-04-23T18:05:54.095Z,16.20
2023-04-23T18:08:21.441Z,16.10
2023-04-23T18:10:48.483Z,16.00
2023-04-23T18:13:15.261Z,15.90
2023-04-23T18:15:42.292Z,15.80
2023-04-23T18:18:09.270Z,15.80
2023-04-23T18:20:38.444Z,15.90
2023-04-23T18:23:06.530Z,15.70
2023-04-23T18:25:33.604Z,15.70
2023-04-23T18:28:00.304Z,15.80
2023-04-23T18:30:27.038Z,15.70
2023-04-23T18:33:02.725Z,15.60
2023-04-23T18:35:29.599Z,15.50
2023-04-23T18:38:02.525Z,15.50
2023-04-23T18:40:29.415Z,15.40
2023-04-23T18:42:56.574Z,15.40
2023-04-23T18:45:23.338Z,15.40
2023-04-23T18:47:51.186Z,15.30
2023-04-23T18:50:29.617Z,15.30
2023-04-23T18:52:56.313Z,15.30
2023-04-23T18:55:22.928Z,15.20
2023-04-23T18:57:49.587Z,15.20
2023-04-23T19:00:16.411Z,15.30
2023-04-23T19:02:43.311Z,15.40
2023-04-23T19:05:10.146Z,15.40
2023-04-23T19:07:40.248Z,15.40
2023-04-23T19:10:07.279Z,15.40
2023-04-23T19:12:33.868Z,15.60
2023-04-23T19:15:00.551Z,15.60
2023-04-23T19:17:27.427Z,15.70
2023-04-23T19:19:54.274Z,15.60
2023-04-23T19:22:23.946Z,15.70
2023-04-23T19:24:51.267Z,15.60
2023-04-23T19:27:18.020Z,15.50
2023-04-23T19:29:45.972Z,15.40
2023-04-23T19:32:12.565Z,15.20
2023-04-23T19:34:39.218Z,15.20
2023-04-23T19:37:06.582Z,15.00
2023-04-23T19:39:33.321Z,14.90
2023-04-23T19:42:02.538Z,14.80
2023-04-23T19:44:30.515Z,14.80
2023-04-23T19:46:57.216Z,14.60
2023-04-23T19:49:24.092Z,14.50
2023-04-23T19:51:52.425Z,14.40
2023-04-23T19:54:19.171Z,14.20
2023-04-23T19:56:45.853Z,13.90
2023-04-23T19:59:20.714Z,13.90
2023-04-23T20:01:47.687Z,13.90
2023-04-23T20:04:14.737Z,13.50
2023-04-23T20:06:41.539Z,13.20
2023-04-23T20:09:08.497Z,12.90
2023-04-23T20:11:35.910Z,12.70
2023-04-23T20:14:03.331Z,12.60
2023-04-23T20:16:30.606Z,12.50
2023-04-23T20:18:59.216Z,12.60
2023-04-23T20:21:26.769Z,12.40
2023-04-23T20:23:53.449Z,12.30
2023-04-23T20:26:20.364Z,12.30
2023-04-23T20:28:48.452Z,12.30
2023-04-23T20:31:15.642Z,12.20
2023-04-23T20:33:42.364Z,12.20
2023-04-23T20:36:10.021Z,12.20
2023-04-23T20:38:39.673Z,12.20
2023-04-23T20:41:10.085Z,12.20
2023-04-23T20:43:40.399Z,12.20
2023-04-23T20:46:07.178Z,12.20
2023-04-23T20:48:33.942Z,12.30
2023-04-23T20:51:00.902Z,12.30
2023-04-23T20:53:28.709Z,12.30
2023-04-23T20:55:56.708Z,12.30
2023-04-23T20:58:23.657Z,12.30
2023-04-23T21:00:51.402Z,12.20
2023-04-23T21:03:18.701Z,12.20
2023-04-23T21:05:45.577Z,12.20
2023-04-23T21:08:13.724Z,12.10
2023-04-23T21:10:41.212Z,12.20
2023-04-23T21:13:09.752Z,12.10
2023-04-23T21:15:37.025Z,12.20
2023-04-23T21:18:04.208Z,12.40
2023-04-23T21:20:31.330Z,12.40
2023-04-23T21:22:58.072Z,12.40
2023-04-23T21:25:26.739Z,12.40
2023-04-23T21:27:57.049Z,12.30
2023-04-23T21:30:34.493Z,12.40
2023-04-23T21:33:01.240Z,12.30
2023-04-23T21:35:28.142Z,12.30
2023-04-23T21:37:54.976Z,12.30
2023-04-23T21:40:21.656Z,12.30
2023-04-23T21:42:48.429Z,12.20
2023-04-23T21:45:15.941Z,12.10
2023-04-23T21:47:42.552Z,12.20
2023-04-23T21:50:10.106Z,12.10
2023-04-23T21:52:39.754Z,12.10
2023-04-23T21:55:06.640Z,12.10
2023-04-23T21:57:33.594Z,12.10
2023-04-23T22:00:00.209Z,12.10
2023-04-23T22:02:27.145Z,12.00
2023-04-23T22:04:53.892Z,12.00
2023-04-23T22:07:20.809Z,12.10
2023-04-23T22:09:47.462Z,12.00
2023-04-23T22:12:14.076Z,12.00
2023-04-23T22:14:40.796Z,12.00
2023-04-23T22:17:07.712Z,12.00
2023-04-23T22:19:34.427Z,12.00
2023-04-23T22:22:01.088Z,12.00
2023-04-23T22:24:27.765Z,12.00
2023-04-23T22:26:54.483Z,12.00
2023-04-23T22:29:21.311Z,12.10
2023-04-23T22:31:48.000Z,12.10
2023-04-23T22:34:14.754Z,12.10
2023-04-23T22:36:43.118Z,12.10
2023-04-23T22:39:10.747Z,12.00
2023-04-23T22:41:38.824Z,12.00
2023-04-23T22:44:05.667Z,12.00
2023-04-23T22:46:32.648Z,12.00
2023-04-23T22:49:01.272Z,12.00
2023-04-23T22:51:28.256Z,12.10
2023-04-23T22:53:55.160Z,12.10
2023-04-23T22:56:21.995Z,12.10
2023-04-23T22:58:48.608Z,12.10
2023-04-23T23:01:15.326Z,12.20
2023-04-23T23:03:42.089Z,12.20
2023-04-23T23:06:08.846Z,12.30
2023-04-23T23:08:35.636Z,12.30
2023-04-23T23:11:02.356Z,12.30
2023-04-23T23:13:29.138Z,12.20
2023-04-23T23:16:00.353Z,12.30
2023-04-23T23:18:27.191Z,12.30
2023-04-23T23:20:53.902Z,12.30
2023-04-23T23:23:21.391Z,12.30
2023-04-23T23:25:48.130Z,12.30
2023-04-23T23:28:15.029Z,12.30
2023-04-23T23:30:41.929Z,12.30
2023-04-23T23:33:08.618Z,12.30
2023-04-23T23:35:35.732Z,12.40
2023-04-23T23:38:02.433Z,12.30
2023-04-23T23:40:29.209Z,12.30
2023-04-23T23:42:56.559Z,12.30
2023-04-23T23:45:23.380Z,12.30
2023-04-23T23:47:50.301Z,12.30
2023-04-23T23:50:17.424Z,12.30
2023-04-23T23:52:44.098Z,12.30
2023-04-23T23:55:10.865Z,12.30
2023-04-23T23:57:37.570Z,12.30
